首页
METAR-TAF:

METAR-TAF

机场 :

图兹拉国际机场

图兹拉, 波斯尼亚和黑塞哥维那

纬度: 44-33N, 经度: 018-42E, 海拔: 306米

当前天气观测

该预报发布于31分钟前的18:30 UTC
风速2节,风向多变
温度 6°C
湿度 93%
气压 1025 hPa
能見度: 7000
少量云层高于4500英尺

METAR: LQTZ 181830Z VRB02KT 7000 FEW045 06/05 Q1025

时间: 20:01 (19:01 UTC)

预报

该预报发布于2小时和1分钟前的17:00 UTC
预报有效从18日的 18点(UTC)到 19日的 18点(UTC)
风速2节,风向多变
能見度: 7000
散云层高于4000英尺
几率 40%
从 18日的 18点(UTC)到 19日的 08点(UTC)
能見度: 2000
轻雾
几率 30% :
短暂存在
从 19日的 03点(UTC)到 19日的 07点(UTC)
能見度: 0500
多云层高于200英尺
几率 40% :
短暂存在
从 19日的 12点(UTC)到 19日的 18点(UTC)
风速10节,风向

TAF: LQTZ 181700Z 1818/1918 VRB02KT 7000 SCT040 TX10/1913Z TN01/1906Z PROB40 1818/1908 2000 BR PROB30 TEMPO 1903/1907 0500 FG BKN002 PROB40 TEMPO 1912/1918 09010KT

超过4000个机场的气象观测和天气预报(METAR&TAF报告)。

可查询的气象台以黄色和红色小点在地图上表示。

将鼠标移到小点上方,可查看气象台名称。

然后点击查看天气观测和预报。

如需切换地图:点击带黑十字的绿色按钮放大地图;点击带横线的绿色按钮缩小地图;或者点击绿色箭头查看邻近地区的地图。


METAR-TAF: